TAF and METAR

Could not understand the following METAR

YNWN 191500Z AUTO 26004KT 9999 // SCT100 29/16 Q1011
No TAF available for Newman Airport
Newman Airport in Australia at 525m

Latest 5 airports